createdAt,value
2018-04-15T00:00:05.403Z,59.7
2018-04-15T00:15:04.887Z,59.4
2018-04-15T00:30:04.777Z,59.5
2018-04-15T00:45:05.442Z,61.1
2018-04-15T01:00:05.158Z,62.4
2018-04-15T01:15:05.075Z,61.7
2018-04-15T01:30:05.399Z,62.2
2018-04-15T01:45:05.434Z,62.7
2018-04-15T02:00:05.238Z,62.8
2018-04-15T02:15:05.613Z,63.6
2018-04-15T02:30:04.558Z,63.2
2018-04-15T02:45:05.287Z,64.1
2018-04-15T03:00:05.054Z,63.8
2018-04-15T03:15:05.130Z,64.1
2018-04-15T03:30:05.200Z,64.3
2018-04-15T03:45:05.604Z,65.6
2018-04-15T04:00:05.375Z,65
2018-04-15T04:15:04.623Z,66
2018-04-15T04:30:04.923Z,66.3
2018-04-15T04:45:04.627Z,66.6
2018-04-15T05:00:04.580Z,67.7
2018-04-15T05:15:05.094Z,67.8
2018-04-15T05:30:04.789Z,67.6
2018-04-15T05:45:05.449Z,67.5
2018-04-15T06:00:04.975Z,67.8
2018-04-15T06:15:04.449Z,67.1
2018-04-15T06:30:04.601Z,66.2
2018-04-15T06:45:04.644Z,66.2
2018-04-15T07:00:05.325Z,63.6
2018-04-15T07:15:05.128Z,62.8
2018-04-15T07:30:05.220Z,61.1
2018-04-15T07:45:05.326Z,56.7
2018-04-15T08:00:05.385Z,59.5
2018-04-15T08:15:04.871Z,50.7
2018-04-15T08:30:05.182Z,53.5
2018-04-15T08:45:04.785Z,55.6
2018-04-15T09:00:05.146Z,56.7
2018-04-15T09:15:05.351Z,57
2018-04-15T09:30:04.540Z,57.5
2018-04-15T09:45:05.159Z,56.5
2018-04-15T10:00:04.906Z,55.3
2018-04-15T10:15:04.471Z,54.9
2018-04-15T10:30:05.123Z,52.3
2018-04-15T10:45:04.625Z,52.8
2018-04-15T11:00:05.202Z,49.7
2018-04-15T11:15:05.143Z,51.4
2018-04-15T11:30:04.931Z,50
2018-04-15T11:45:04.761Z,48.4
2018-04-15T12:00:05.232Z,48
2018-04-15T12:15:05.224Z,47.4
2018-04-15T12:30:04.713Z,46.9
2018-04-15T12:45:05.686Z,45.9
2018-04-15T13:00:05.194Z,46.3
2018-04-15T13:15:05.117Z,47.9
2018-04-15T13:30:10.547Z,48.5
2018-04-15T13:45:05.438Z,49
2018-04-15T14:00:04.991Z,49.3
2018-04-15T14:15:04.983Z,48.4
2018-04-15T14:30:05.153Z,47.7
2018-04-15T14:45:04.681Z,48.7
2018-04-15T15:00:05.023Z,48.4
2018-04-15T15:15:04.883Z,47.8
2018-04-15T15:30:04.988Z,45.8
2018-04-15T15:45:04.906Z,46.2
2018-04-15T16:00:04.907Z,46.6
2018-04-15T16:15:05.031Z,46.8
2018-04-15T16:30:09.690Z,49.4
2018-04-15T16:45:04.598Z,50.3
2018-04-15T17:00:05.127Z,50.6
2018-04-15T17:15:05.035Z,51.2
2018-04-15T17:30:05.849Z,51.7
2018-04-15T17:45:04.639Z,52.1
2018-04-15T18:00:05.462Z,53.3
2018-04-15T18:15:05.116Z,54
2018-04-15T18:30:04.309Z,54.2
2018-04-15T18:45:05.065Z,54.4
2018-04-15T19:00:04.598Z,55.2
2018-04-15T19:15:05.237Z,55.9
2018-04-15T19:30:04.395Z,56.5
2018-04-15T19:45:04.800Z,57
2018-04-15T20:00:04.305Z,58.2
2018-04-15T20:15:05.007Z,58.4
2018-04-15T20:30:05.044Z,58.9
2018-04-15T20:45:04.629Z,59.5
2018-04-15T21:00:04.561Z,60.5
2018-04-15T21:15:05.065Z,60.3
2018-04-15T21:30:07.456Z,60.9
2018-04-15T21:45:04.945Z,61
2018-04-15T22:00:04.490Z,61.8
2018-04-15T22:15:05.684Z,62.4
2018-04-15T22:30:04.950Z,63.1
2018-04-15T22:45:05.026Z,63.8
2018-04-15T23:00:04.435Z,64.7
2018-04-15T23:15:04.945Z,65.6
2018-04-15T23:30:04.684Z,65.7
2018-04-15T23:45:05.034Z,65.1
